Time;durP1;ratioP1;P1;durP2;ratioP2;P2;SDS_P1;SDS_P2;PMS_P1;PMS_P2;Temp;Humidity;BMP_temperature;BMP_pressure;BME280_temperature;BME280_humidity;BME280_pressure;Samples;Min_cycle;Max_cycle;Signal;HPM_P1;HPM_P2
2022/01/29 00:01:07;;;;;;;8.90;3.60;;;;;;;-0.46;78.54;100879.50;130231;1268;109852;-78
2022/01/29 00:04:16;;;;;;;8.00;3.50;;;;;;;-0.45;78.69;100878.40;130450;1267;109033;-76
2022/01/29 00:07:22;;;;;;;6.90;3.70;;;;;;;-0.42;78.63;100875.33;130392;1268;108696;-77
2022/01/29 00:10:27;;;;;;;9.40;3.50;;;;;;;-0.37;78.58;100882.29;130361;1268;108880;-76
2022/01/29 00:13:33;;;;;;;6.90;2.90;;;;;;;-0.37;78.72;100885.98;130256;1268;107706;-77
2022/01/29 00:16:40;;;;;;;7.50;2.90;;;;;;;-0.40;78.56;100886.08;130380;1268;108820;-76
2022/01/29 00:19:46;;;;;;;9.00;3.40;;;;;;;-0.41;78.77;100892.59;130332;1269;108767;-77
2022/01/29 00:22:52;;;;;;;8.40;3.20;;;;;;;-0.47;79.04;100897.56;130311;1268;108579;-76
2022/01/29 00:25:59;;;;;;;9.70;3.00;;;;;;;-0.52;79.00;100901.64;130337;1268;108706;-77
2022/01/29 00:29:14;;;;;;;10.00;2.90;;;;;;;-0.53;79.19;100903.59;130419;1268;108966;-77
2022/01/29 00:32:20;;;;;;;7.20;2.80;;;;;;;-0.51;78.76;100898.27;130382;1268;108763;-78
2022/01/29 00:35:26;;;;;;;10.00;3.40;;;;;;;-0.44;78.82;100893.21;130482;1268;108850;-77
2022/01/29 00:38:32;;;;;;;12.00;3.60;;;;;;;-0.42;78.94;100892.98;130275;1269;107774;-76
2022/01/29 00:41:37;;;;;;;7.40;2.90;;;;;;;-0.45;78.82;100895.03;130376;1268;108787;-77
2022/01/29 00:44:43;;;;;;;13.00;4.60;;;;;;;-0.47;78.60;100902.65;130357;1268;109379;-77
2022/01/29 00:47:48;;;;;;;11.60;3.80;;;;;;;-0.48;78.82;100897.95;130433;1268;108840;-76
2022/01/29 00:50:54;;;;;;;9.30;3.00;;;;;;;-0.48;78.75;100896.19;130372;1268;108748;-77
2022/01/29 00:54:00;;;;;;;9.00;3.40;;;;;;;-0.51;78.89;100898.46;130394;1268;108797;-78
2022/01/29 00:57:06;;;;;;;18.10;9.20;;;;;;;-0.51;78.97;100896.88;130475;1268;108856;-77
2022/01/29 01:00:15;;;;;;;29.70;15.40;;;;;;;-0.48;79.00;100900.38;130262;1270;108755;-78
2022/01/29 01:03:20;;;;;;;77.00;40.30;;;;;;;-0.37;78.91;100894.88;130368;1268;108899;-78
2022/01/29 01:06:25;;;;;;;20.90;7.90;;;;;;;-0.29;78.98;100891.21;130403;1268;108747;-77
2022/01/29 01:09:31;;;;;;;29.40;13.70;;;;;;;-0.31;78.81;100887.23;130403;1268;109280;-77
2022/01/29 01:12:37;;;;;;;16.90;7.30;;;;;;;-0.29;78.97;100888.39;130330;1268;109159;-77
2022/01/29 01:15:42;;;;;;;20.70;8.30;;;;;;;-0.34;78.79;100877.05;130377;1268;108764;-76
2022/01/29 01:18:48;;;;;;;106.90;45.40;;;;;;;-0.40;78.97;100867.38;130280;1270;109910;-77
2022/01/29 01:21:53;;;;;;;67.80;29.10;;;;;;;-0.40;78.93;100864.91;130327;1268;108643;-77
2022/01/29 01:24:58;;;;;;;68.90;26.10;;;;;;;-0.44;79.05;100865.29;130250;1268;108874;-77
2022/01/29 01:28:04;;;;;;;156.60;68.60;;;;;;;-0.52;79.18;100868.95;130335;1268;108685;-78
2022/01/29 01:31:09;;;;;;;24.90;10.10;;;;;;;-0.53;79.27;100871.08;130337;1268;108964;-80
2022/01/29 01:34:17;;;;;;;46.20;18.20;;;;;;;-0.49;79.28;100859.20;130359;1268;108987;-77
2022/01/29 01:37:33;;;;;;;42.70;18.10;;;;;;;-0.43;79.39;100856.48;130358;1267;108699;-76
2022/01/29 01:40:42;;;;;;;45.70;19.40;;;;;;;-0.39;79.12;100856.15;130316;1266;109959;-76
2022/01/29 01:43:48;;;;;;;16.60;6.40;;;;;;;-0.37;78.93;100857.98;130308;1268;108670;-78
2022/01/29 01:46:53;;;;;;;21.20;8.60;;;;;;;-0.39;78.87;100857.91;130334;1268;107655;-78
2022/01/29 01:49:59;;;;;;;29.80;14.70;;;;;;;-0.47;78.99;100862.95;130320;1268;108595;-77
2022/01/29 01:53:11;;;;;;;13.60;6.20;;;;;;;-0.57;79.11;100859.03;130377;1268;108786;-77
2022/01/29 01:56:21;;;;;;;15.10;6.70;;;;;;;-0.65;79.27;100856.92;130374;1268;108611;-77
2022/01/29 01:59:32;;;;;;;35.90;14.40;;;;;;;-0.67;79.18;100856.67;130260;1268;109368;-78
2022/01/29 02:02:38;;;;;;;78.60;30.30;;;;;;;-0.63;79.14;100849.69;130362;1268;107554;-75
2022/01/29 02:05:46;;;;;;;119.80;45.00;;;;;;;-0.56;79.05;100844.64;130346;1268;108773;-80
2022/01/29 02:08:58;;;;;;;44.20;19.20;;;;;;;-0.51;78.86;100841.63;130428;1268;108763;-79
2022/01/29 02:12:04;;;;;;;31.80;13.20;;;;;;;-0.48;79.02;100832.60;130512;1268;107657;-78
2022/01/29 02:15:13;;;;;;;61.90;24.90;;;;;;;-0.52;78.76;100835.41;130468;1268;108556;-78
2022/01/29 02:18:18;;;;;;;116.60;46.00;;;;;;;-0.55;78.82;100844.10;130421;1268;109090;-76
2022/01/29 02:21:28;;;;;;;37.10;14.00;;;;;;;-0.59;78.94;100836.76;130290;1267;108680;-76
2022/01/29 02:24:34;;;;;;;23.90;9.80;;;;;;;-0.62;78.98;100833.90;130257;1268;108738;-78
2022/01/29 02:27:39;;;;;;;31.30;13.00;;;;;;;-0.67;79.00;100838.31;130315;1267;109156;-77
2022/01/29 02:30:47;;;;;;;52.20;22.00;;;;;;;-0.71;79.00;100841.27;130213;1268;109148;-77
2022/01/29 02:33:53;;;;;;;26.20;12.20;;;;;;;-0.69;79.07;100835.98;130302;1268;107802;-77
2022/01/29 02:36:58;;;;;;;29.50;16.90;;;;;;;-0.62;79.05;100842.48;130362;1268;107581;-77
2022/01/29 02:40:04;;;;;;;34.30;18.80;;;;;;;-0.55;78.92;100832.59;130408;1268;108655;-78
2022/01/29 02:43:16;;;;;;;17.30;9.80;;;;;;;-0.51;78.88;100832.75;130376;1267;107567;-77
2022/01/29 02:46:29;;;;;;;16.80;9.70;;;;;;;-0.50;78.88;100830.92;130345;1268;108736;-78
2022/01/29 02:49:35;;;;;;;14.20;8.70;;;;;;;-0.52;78.87;100829.63;130332;1268;109827;-77
2022/01/29 02:52:40;;;;;;;16.90;12.10;;;;;;;-0.55;78.88;100832.04;130261;1268;108742;-77
2022/01/29 02:55:46;;;;;;;12.10;6.90;;;;;;;-0.59;78.60;100825.05;130326;1268;108754;-74
2022/01/29 02:58:51;;;;;;;12.70;7.90;;;;;;;-0.66;78.86;100825.33;130276;1268;106773;-77
2022/01/29 03:01:56;;;;;;;16.00;10.30;;;;;;;-0.72;78.80;100823.70;130418;1268;108922;-79
2022/01/29 03:05:02;;;;;;;12.70;7.40;;;;;;;-0.72;78.92;100825.95;130335;1268;108688;-78
2022/01/29 03:08:08;;;;;;;10.70;5.30;;;;;;;-0.72;78.96;100829.27;130357;1268;108562;-78
2022/01/29 03:11:19;;;;;;;15.30;9.40;;;;;;;-0.65;79.11;100829.48;130360;1268;108841;-78
2022/01/29 03:14:24;;;;;;;15.60;10.90;;;;;;;-0.56;78.88;100827.37;130349;1268;108518;-79
2022/01/29 03:17:29;;;;;;;14.80;9.60;;;;;;;-0.51;78.85;100823.47;130309;1268;108957;-78
2022/01/29 03:20:35;;;;;;;17.80;12.80;;;;;;;-0.47;78.74;100816.29;130396;1268;108659;-78
2022/01/29 03:23:41;;;;;;;19.10;11.00;;;;;;;-0.44;78.62;100815.98;130288;1268;108743;-77
2022/01/29 03:26:46;;;;;;;16.60;6.50;;;;;;;-0.44;78.86;100815.80;130371;1268;108958;-77
2022/01/29 03:29:52;;;;;;;16.40;8.70;;;;;;;-0.47;78.75;100813.14;130344;1268;108929;-78
2022/01/29 03:32:57;;;;;;;18.20;9.20;;;;;;;-0.49;78.67;100814.48;130237;1268;108976;-78
2022/01/29 03:36:03;;;;;;;13.00;8.00;;;;;;;-0.52;78.66;100806.41;130423;1268;108660;-76
2022/01/29 03:39:09;;;;;;;13.20;8.70;;;;;;;-0.56;78.67;100803.77;130327;1268;107678;-77
2022/01/29 03:42:15;;;;;;;9.20;6.00;;;;;;;-0.60;78.77;100802.70;130333;1268;108698;-75
2022/01/29 03:45:21;;;;;;;10.50;4.90;;;;;;;-0.62;78.71;100801.58;130396;1268;108844;-77
2022/01/29 03:48:26;;;;;;;10.50;4.50;;;;;;;-0.62;78.78;100802.47;130345;1268;106978;-77
2022/01/29 03:51:32;;;;;;;9.60;4.30;;;;;;;-0.62;78.72;100809.10;130338;1268;108826;-77
2022/01/29 03:54:37;;;;;;;9.20;4.80;;;;;;;-0.58;78.78;100814.53;130396;1267;108681;-76
2022/01/29 03:57:42;;;;;;;9.50;5.30;;;;;;;-0.53;78.65;100814.48;130359;1268;109909;-76
2022/01/29 04:00:48;;;;;;;7.70;3.80;;;;;;;-0.49;78.66;100810.98;130345;1268;108915;-74
2022/01/29 04:03:53;;;;;;;7.30;3.50;;;;;;;-0.46;78.73;100811.52;130256;1268;109012;-75
2022/01/29 04:07:05;;;;;;;9.60;3.90;;;;;;;-0.45;78.59;100809.55;130359;1268;107604;-76
2022/01/29 04:10:12;;;;;;;8.30;3.50;;;;;;;-0.47;78.69;100810.71;130377;1268;107583;-75
2022/01/29 04:13:21;;;;;;;8.40;3.30;;;;;;;-0.50;78.38;100812.73;130383;1268;108857;-74
2022/01/29 04:16:27;;;;;;;10.30;4.30;;;;;;;-0.54;78.67;100807.17;130385;1268;108919;-75
2022/01/29 04:19:33;;;;;;;8.10;4.40;;;;;;;-0.56;78.49;100812.02;130239;1268;107741;-74
2022/01/29 04:22:39;;;;;;;7.20;3.10;;;;;;;-0.64;78.73;100801.67;130390;1268;108637;-75
2022/01/29 04:25:44;;;;;;;11.80;4.30;;;;;;;-0.68;79.00;100802.42;130336;1268;108701;-75
2022/01/29 04:28:51;;;;;;;11.70;4.40;;;;;;;-0.73;78.73;100802.63;130328;1268;108861;-75
2022/01/29 04:32:06;;;;;;;10.40;4.00;;;;;;;-0.78;78.93;100803.52;130405;1268;106730;-74
2022/01/29 04:35:12;;;;;;;11.70;4.10;;;;;;;-0.80;78.66;100795.88;130394;1268;109072;-77
2022/01/29 04:38:18;;;;;;;10.60;3.60;;;;;;;-0.77;78.87;100798.40;130347;1268;108920;-77
2022/01/29 04:41:23;;;;;;;69.50;29.90;;;;;;;-0.69;78.90;100796.33;130320;1267;108717;-76
2022/01/29 04:44:29;;;;;;;37.50;20.40;;;;;;;-0.65;78.63;100793.48;130394;1268;108705;-76
2022/01/29 04:47:34;;;;;;;29.20;14.00;;;;;;;-0.62;78.62;100794.93;130339;1268;108878;-75
2022/01/29 04:50:40;;;;;;;48.70;23.00;;;;;;;-0.58;78.74;100795.98;130410;1268;108786;-76
2022/01/29 04:53:46;;;;;;;39.40;19.30;;;;;;;-0.60;78.62;100787.67;130353;1268;108992;-76
2022/01/29 04:56:51;;;;;;;35.50;17.70;;;;;;;-0.63;78.92;100781.70;130402;1267;109145;-76
2022/01/29 04:59:57;;;;;;;78.30;38.90;;;;;;;-0.66;78.67;100778.88;130386;1268;108904;-75
2022/01/29 05:03:11;;;;;;;111.10;57.60;;;;;;;-0.70;78.67;100772.76;130310;1267;108915;-74
2022/01/29 05:06:17;;;;;;;83.80;41.20;;;;;;;-0.74;78.85;100764.23;130393;1268;108716;-74
2022/01/29 05:09:22;;;;;;;38.00;16.90;;;;;;;-0.78;78.63;100762.83;130355;1268;107893;-75
2022/01/29 05:12:33;;;;;;;43.40;22.90;;;;;;;-0.82;78.69;100760.55;130370;1268;107726;-78
2022/01/29 05:15:42;;;;;;;28.30;15.20;;;;;;;-0.85;78.89;100750.53;130308;1268;108697;-78
2022/01/29 05:29:03;;;;;;;17.40;9.40;;;;;;;-0.65;78.64;100754.91;130304;1268;109105;-76
2022/01/29 05:32:11;;;;;;;25.30;10.60;;;;;;;-0.62;78.78;100757.21;130364;1268;108938;-74
2022/01/29 05:35:17;;;;;;;17.70;7.30;;;;;;;-0.60;78.63;100755.02;130387;1267;108803;-74
2022/01/29 05:38:22;;;;;;;57.30;27.70;;;;;;;-0.61;78.56;100752.26;130353;1266;108667;-74
2022/01/29 05:41:29;;;;;;;46.40;22.10;;;;;;;-0.65;78.38;100747.92;130367;1268;108709;-77
2022/01/29 05:44:34;;;;;;;50.20;26.60;;;;;;;-0.72;78.64;100740.88;130411;1268;109178;-78
2022/01/29 05:47:40;;;;;;;28.50;12.40;;;;;;;-0.76;78.80;100733.92;130380;1267;109019;-77
2022/01/29 05:50:46;;;;;;;24.50;11.70;;;;;;;-0.81;78.80;100727.66;130345;1267;108472;-78
2022/01/29 05:53:51;;;;;;;31.80;16.60;;;;;;;-0.88;78.75;100722.71;130395;1268;108597;-82
2022/01/29 05:56:57;;;;;;;31.40;12.70;;;;;;;-0.91;78.82;100717.45;130441;1267;109696;-84
2022/01/29 06:00:03;;;;;;;30.50;14.40;;;;;;;-0.90;79.34;100713.75;130557;1267;108833;-78
2022/01/29 06:03:10;;;;;;;27.50;10.00;;;;;;;-0.85;79.09;100718.91;130503;1268;108994;-85
2022/01/29 06:06:24;;;;;;;22.20;9.10;;;;;;;-0.79;79.29;100716.71;130591;1268;108762;-84
2022/01/29 06:09:31;;;;;;;17.20;7.70;;;;;;;-0.73;79.09;100716.98;130424;1268;109080;-77
2022/01/29 06:12:45;;;;;;;21.50;10.40;;;;;;;-0.68;79.30;100716.77;130341;1268;108762;-75
2022/01/29 06:15:53;;;;;;;24.50;11.80;;;;;;;-0.66;79.13;100713.34;130253;1268;107647;-75
2022/01/29 06:18:59;;;;;;;21.60;9.90;;;;;;;-0.66;79.05;100710.39;130439;1268;108688;-80
2022/01/29 06:22:10;;;;;;;25.00;14.90;;;;;;;-0.68;79.07;100710.34;130389;1267;108839;-76
2022/01/29 06:25:15;;;;;;;32.00;19.10;;;;;;;-0.70;79.13;100711.27;131547;1267;108768;-77
2022/01/29 06:28:20;;;;;;;28.20;17.10;;;;;;;-0.73;78.96;100717.34;130734;1268;108803;-76
2022/01/29 06:31:26;;;;;;;20.20;11.20;;;;;;;-0.75;79.10;100712.36;130366;1267;108851;-75
2022/01/29 06:34:31;;;;;;;19.00;10.40;;;;;;;-0.75;79.09;100713.63;130340;1268;108801;-77
2022/01/29 06:37:37;;;;;;;23.80;11.90;;;;;;;-0.73;79.53;100713.36;130393;1268;109206;-75
2022/01/29 06:40:43;;;;;;;30.10;18.50;;;;;;;-0.67;79.49;100710.08;130382;1268;107540;-75
2022/01/29 06:43:49;;;;;;;18.90;8.40;;;;;;;-0.57;79.60;100710.67;130316;1268;108691;-74
2022/01/29 06:46:54;;;;;;;29.90;14.90;;;;;;;-0.49;79.20;100716.59;130401;1268;109779;-76
2022/01/29 06:50:00;;;;;;;33.20;15.40;;;;;;;-0.44;79.37;100711.46;130326;1268;108774;-76
2022/01/29 06:53:06;;;;;;;29.20;13.40;;;;;;;-0.42;79.24;100701.90;130392;1268;108731;-73
2022/01/29 06:56:12;;;;;;;205.00;85.80;;;;;;;-0.37;79.22;100703.29;130456;1268;107713;-74
2022/01/29 06:59:17;;;;;;;90.60;40.10;;;;;;;-0.33;79.13;100705.39;130379;1267;106629;-74
2022/01/29 07:02:23;;;;;;;74.30;32.70;;;;;;;-0.33;79.64;100696.09;130559;1268;108685;-76
2022/01/29 07:05:28;;;;;;;89.20;35.70;;;;;;;-0.32;79.42;100687.31;130373;1267;108658;-75
2022/01/29 07:08:37;;;;;;;108.40;39.80;;;;;;;-0.30;79.58;100678.67;130463;1267;107643;-77
2022/01/29 07:11:44;;;;;;;92.70;34.60;;;;;;;-0.27;79.62;100674.34;130308;1268;108848;-75
2022/01/29 07:14:50;;;;;;;115.20;42.10;;;;;;;-0.21;79.70;100673.69;130575;1268;108720;-76
2022/01/29 07:17:55;;;;;;;47.90;19.00;;;;;;;-0.11;79.81;100666.88;130384;1267;108738;-76
2022/01/29 07:21:00;;;;;;;317.70;132.70;;;;;;;0.02;79.78;100664.89;130273;1268;108886;-77
2022/01/29 07:24:07;;;;;;;46.20;19.30;;;;;;;0.12;79.64;100659.83;130313;1267;109265;-78
2022/01/29 07:27:12;;;;;;;37.10;17.90;;;;;;;0.22;79.65;100654.08;130336;1268;108863;-78
2022/01/29 07:30:18;;;;;;;22.50;10.50;;;;;;;0.29;79.60;100651.98;130336;1267;108760;-78
2022/01/29 07:33:23;;;;;;;21.40;8.60;;;;;;;0.34;79.50;100654.33;131082;1267;107663;-80
2022/01/29 07:36:28;;;;;;;17.90;8.50;;;;;;;0.41;79.67;100644.88;130647;1268;108789;-80
2022/01/29 07:39:34;;;;;;;17.30;7.30;;;;;;;0.52;79.74;100639.61;130601;1268;108862;-80
2022/01/29 07:42:40;;;;;;;15.70;7.40;;;;;;;0.64;79.58;100631.48;130490;1268;108813;-78
2022/01/29 07:45:45;;;;;;;21.40;8.10;;;;;;;0.70;79.65;100623.42;130227;1270;108632;-78
2022/01/29 07:48:50;;;;;;;19.80;9.00;;;;;;;0.74;79.66;100628.11;130329;1268;108835;-78
2022/01/29 07:51:56;;;;;;;18.80;8.90;;;;;;;0.77;79.68;100621.46;130420;1268;108843;-77
2022/01/29 07:55:01;;;;;;;16.60;7.00;;;;;;;0.84;79.60;100608.50;130275;1268;108717;-76
2022/01/29 07:58:07;;;;;;;21.70;7.30;;;;;;;0.93;79.71;100606.27;130389;1268;208133;-78
2022/01/29 08:01:14;;;;;;;17.60;8.30;;;;;;;1.03;79.76;100603.48;130339;1268;108662;-77
2022/01/29 08:04:23;;;;;;;19.50;8.90;;;;;;;1.10;79.65;100594.52;130319;1268;108812;-76
2022/01/29 08:07:29;;;;;;;24.50;11.70;;;;;;;1.15;79.64;100594.92;130375;1268;108576;-77
2022/01/29 08:10:34;;;;;;;29.20;16.00;;;;;;;1.18;79.52;100590.56;130366;1268;107299;-78
2022/01/29 08:13:40;;;;;;;24.40;11.60;;;;;;;1.21;79.57;100583.74;130729;1267;107512;-78
2022/01/29 08:16:46;;;;;;;20.00;9.40;;;;;;;1.24;79.57;100588.32;130464;1267;106824;-74
2022/01/29 08:19:51;;;;;;;22.70;9.10;;;;;;;1.25;79.52;100583.15;131016;1267;108666;-78
2022/01/29 08:22:57;;;;;;;19.10;8.90;;;;;;;1.26;79.59;100579.95;130375;1268;108852;-77
2022/01/29 08:26:02;;;;;;;21.30;8.90;;;;;;;1.28;79.65;100576.69;130488;1268;109182;-77
2022/01/29 08:29:08;;;;;;;19.80;7.50;;;;;;;1.34;79.65;100567.40;130583;1268;108958;-80
2022/01/29 08:32:13;;;;;;;22.10;9.20;;;;;;;1.45;79.75;100554.50;130477;1267;108652;-78
2022/01/29 08:35:18;;;;;;;25.90;11.50;;;;;;;1.58;79.66;100546.42;130349;1267;108901;-78
2022/01/29 08:38:24;;;;;;;32.70;15.20;;;;;;;1.72;79.59;100545.98;130362;1268;108766;-83
2022/01/29 08:41:30;;;;;;;21.90;10.30;;;;;;;1.87;79.51;100543.02;131236;1268;107133;-79
2022/01/29 08:44:35;;;;;;;24.40;9.50;;;;;;;2.01;79.39;100541.83;130433;1268;108641;-80
2022/01/29 08:47:41;;;;;;;20.50;8.70;;;;;;;2.15;79.41;100538.85;130629;1267;108858;-77
2022/01/29 08:50:47;;;;;;;19.70;9.10;;;;;;;2.27;79.40;100539.21;130374;1268;108846;-80
2022/01/29 08:53:52;;;;;;;19.80;9.20;;;;;;;2.36;79.22;100537.42;130716;1268;108956;-80
2022/01/29 08:56:58;;;;;;;22.20;8.90;;;;;;;2.41;79.16;100530.83;130388;1267;108889;-80
2022/01/29 09:00:04;;;;;;;47.70;18.70;;;;;;;2.46;79.34;100520.50;130340;1267;108972;-77
2022/01/29 09:03:10;;;;;;;32.40;15.50;;;;;;;2.53;79.26;100513.38;130366;1268;108717;-77
2022/01/29 09:06:15;;;;;;;21.50;8.60;;;;;;;2.63;79.10;100506.29;130550;1268;108601;-80
2022/01/29 09:09:25;;;;;;;28.50;13.40;;;;;;;2.74;79.23;100501.51;130452;1268;108916;-80
2022/01/29 09:12:30;;;;;;;30.20;14.50;;;;;;;2.89;79.20;100499.88;130499;1268;108790;-77
2022/01/29 09:15:36;;;;;;;36.40;15.30;;;;;;;3.02;79.09;100503.24;130508;1268;108948;-76
2022/01/29 09:18:42;;;;;;;27.10;12.00;;;;;;;3.08;78.72;100498.67;130403;1267;108862;-74
2022/01/29 09:21:47;;;;;;;41.30;21.60;;;;;;;3.10;78.70;100493.25;130598;1268;109016;-77
2022/01/29 09:24:52;;;;;;;32.30;14.50;;;;;;;3.18;78.67;100491.02;130561;1268;108791;-75
2022/01/29 09:27:58;;;;;;;35.90;18.50;;;;;;;3.24;78.72;100490.07;130524;1268;109075;-75
2022/01/29 09:31:04;;;;;;;28.90;10.90;;;;;;;3.28;78.47;100484.20;130464;1268;108848;-76
2022/01/29 09:34:09;;;;;;;22.20;10.50;;;;;;;3.33;78.52;100477.54;130395;1268;108849;-77
2022/01/29 09:37:15;;;;;;;23.00;9.20;;;;;;;3.39;78.49;100475.55;130444;1267;109679;-76
2022/01/29 09:40:21;;;;;;;24.30;9.10;;;;;;;3.45;78.45;100471.44;130294;1268;108755;-77
2022/01/29 09:43:27;;;;;;;25.10;9.30;;;;;;;3.52;78.53;100462.90;130662;1268;109552;-78
2022/01/29 09:46:33;;;;;;;29.50;14.00;;;;;;;3.60;78.44;100455.70;130393;1268;108743;-80
2022/01/29 09:49:39;;;;;;;47.80;25.90;;;;;;;3.69;78.22;100451.93;130464;1268;108742;-75
2022/01/29 09:52:45;;;;;;;33.70;15.60;;;;;;;3.77;78.23;100450.29;130389;1267;105871;-75
2022/01/29 09:55:51;;;;;;;34.30;17.20;;;;;;;3.85;78.22;100445.17;130465;1268;107349;-78
2022/01/29 09:58:56;;;;;;;29.40;11.30;;;;;;;3.92;78.16;100433.83;130354;1268;107104;-78
2022/01/29 10:02:01;;;;;;;23.70;9.30;;;;;;;3.99;78.08;100433.02;130536;1267;108885;-79
2022/01/29 10:05:11;;;;;;;24.80;9.40;;;;;;;4.04;78.04;100431.23;130401;1267;108962;-79
2022/01/29 10:08:18;;;;;;;133.00;60.20;;;;;;;4.09;77.97;100428.03;130510;1267;108776;-78
2022/01/29 10:11:27;;;;;;;44.70;17.10;;;;;;;4.18;77.83;100421.13;130492;1267;109224;-82
2022/01/29 10:14:48;;;;;;;86.60;33.80;;;;;;;4.18;77.73;100409.86;130496;1268;108759;-77
2022/01/29 10:17:54;;;;;;;85.50;34.20;;;;;;;4.13;77.54;100405.77;130370;1269;108687;-77
2022/01/29 10:21:09;;;;;;;41.30;15.40;;;;;;;4.14;77.59;100400.81;130284;1268;108853;-77
2022/01/29 10:24:16;;;;;;;36.40;15.90;;;;;;;4.16;77.43;100391.28;130480;1268;108856;-78
2022/01/29 10:27:22;;;;;;;24.20;8.30;;;;;;;4.20;77.52;100373.77;130316;1268;108565;-76
2022/01/29 10:30:30;;;;;;;20.70;7.60;;;;;;;4.21;77.33;100366.27;130359;1267;107513;-80
2022/01/29 10:33:38;;;;;;;19.80;7.20;;;;;;;4.23;77.13;100359.27;130433;1267;107029;-79
2022/01/29 10:36:43;;;;;;;61.00;28.00;;;;;;;4.28;77.23;100347.29;130263;1268;108854;-76
2022/01/29 10:39:53;;;;;;;56.60;29.50;;;;;;;4.39;77.27;100332.05;130248;1268;108853;-74
2022/01/29 10:43:04;;;;;;;31.40;15.10;;;;;;;4.48;76.73;100318.19;130535;1268;108596;-76
2022/01/29 10:46:26;;;;;;;21.80;9.80;;;;;;;4.44;76.55;100321.14;130369;1268;108974;-77
2022/01/29 10:49:34;;;;;;;30.00;14.80;;;;;;;4.40;77.12;100317.39;130379;1268;106684;-80
2022/01/29 10:52:39;;;;;;;20.20;8.80;;;;;;;4.37;76.70;100306.67;130494;1267;107413;-76
2022/01/29 10:56:03;;;;;;;23.10;8.60;;;;;;;4.34;76.43;100294.44;130433;1267;109049;-81
2022/01/29 10:59:16;;;;;;;20.30;9.50;;;;;;;4.29;76.54;100285.05;130402;1267;108758;-80
2022/01/29 11:02:24;;;;;;;17.20;7.50;;;;;;;4.25;76.47;100285.86;130473;1267;108585;-78
2022/01/29 11:05:33;;;;;;;22.90;8.60;;;;;;;4.23;76.56;100279.34;130409;1267;109698;-84
2022/01/29 11:08:39;;;;;;;24.10;8.60;;;;;;;4.22;76.76;100275.05;130570;1268;109717;-79
2022/01/29 11:11:46;;;;;;;21.80;8.50;;;;;;;4.26;76.71;100264.01;130458;1268;108706;-79
2022/01/29 11:14:55;;;;;;;21.90;7.50;;;;;;;4.31;76.64;100256.54;130717;1268;108571;-79
2022/01/29 11:18:00;;;;;;;23.70;8.40;;;;;;;4.39;76.53;100242.81;130573;1267;107888;-78
2022/01/29 11:21:06;;;;;;;21.20;7.30;;;;;;;4.45;76.46;100242.69;130393;1268;108693;-79
2022/01/29 11:24:12;;;;;;;23.50;9.00;;;;;;;4.47;76.45;100235.33;130604;1268;108794;-81
2022/01/29 11:27:26;;;;;;;21.40;8.10;;;;;;;4.49;76.09;100229.21;130694;1267;108805;-80
2022/01/29 11:30:31;;;;;;;29.30;10.70;;;;;;;4.45;76.22;100220.65;130429;1267;108800;-79
2022/01/29 11:34:22;;;;;;;29.60;13.40;;;;;;;4.43;76.42;100210.81;130411;1267;108582;-82
2022/01/29 11:37:44;;;;;;;23.50;11.20;;;;;;;4.46;76.14;100200.02;130423;1265;108896;-80
2022/01/29 11:41:00;;;;;;;22.60;8.20;;;;;;;4.47;76.28;100189.38;130453;1267;108887;-76
2022/01/29 11:44:28;;;;;;;23.20;8.00;;;;;;;4.48;76.25;100176.56;130441;1268;107763;-82
2022/01/29 11:47:52;;;;;;;18.90;7.10;;;;;;;4.47;76.12;100173.31;130519;1268;108658;-79
2022/01/29 11:50:59;;;;;;;34.60;16.80;;;;;;;4.45;76.54;100165.41;130499;1268;107708;-76
2022/01/29 11:54:05;;;;;;;35.60;16.70;;;;;;;4.42;76.36;100150.79;130333;1268;108800;-76
2022/01/29 11:57:17;;;;;;;30.50;12.70;;;;;;;4.33;76.67;100139.81;130447;1267;108833;-76
2022/01/29 12:00:40;;;;;;;29.90;13.30;;;;;;;4.29;76.66;100127.27;130376;1268;107067;-76
2022/01/29 12:03:55;;;;;;;54.20;26.30;;;;;;;4.30;77.02;100118.38;130404;1268;109537;-77
2022/01/29 12:07:14;;;;;;;30.50;14.50;;;;;;;4.32;76.66;100111.02;130340;1267;109470;-75
2022/01/29 12:10:34;;;;;;;34.70;16.30;;;;;;;4.27;76.80;100107.76;130669;1267;108855;-76
2022/01/29 12:13:40;;;;;;;23.50;8.80;;;;;;;4.20;76.72;100099.98;130412;1268;108751;-74
2022/01/29 12:16:51;;;;;;;20.80;9.70;;;;;;;4.12;76.86;100095.13;130393;1267;108777;-75
2022/01/29 12:20:02;;;;;;;23.70;11.30;;;;;;;4.04;76.80;100084.83;130413;1268;108640;-77
2022/01/29 12:23:07;;;;;;;20.10;10.70;;;;;;;3.98;77.05;100084.02;130554;1267;107722;-78
2022/01/29 12:26:13;;;;;;;19.20;9.10;;;;;;;3.94;77.06;100070.80;130277;1268;108714;-76
2022/01/29 12:29:19;;;;;;;22.40;8.20;;;;;;;3.88;77.32;100058.35;130459;1267;109925;-76
2022/01/29 12:32:24;;;;;;;20.50;9.20;;;;;;;3.87;77.41;100050.33;130356;1268;108919;-75
2022/01/29 12:35:41;;;;;;;22.10;9.10;;;;;;;3.86;77.41;100047.79;130486;1268;108736;-74
2022/01/29 12:38:47;;;;;;;22.40;11.50;;;;;;;3.87;77.46;100043.34;130564;1268;108832;-78
2022/01/29 12:42:05;;;;;;;25.90;10.20;;;;;;;3.91;77.60;100035.79;130480;1268;108817;-83
2022/01/29 12:45:11;;;;;;;20.40;9.40;;;;;;;3.98;77.72;100027.73;130474;1268;108770;-78
2022/01/29 12:48:19;;;;;;;20.70;9.70;;;;;;;3.98;77.34;100017.02;130485;1268;107858;-77
2022/01/29 12:51:25;;;;;;;20.10;9.60;;;;;;;3.92;77.59;100001.38;130424;1268;108742;-76
2022/01/29 12:54:31;;;;;;;19.90;10.20;;;;;;;3.89;77.69;99998.95;130450;1267;107834;-72
2022/01/29 12:57:48;;;;;;;20.70;8.80;;;;;;;3.81;77.76;99987.64;130591;1267;108174;-74
2022/01/29 13:01:04;;;;;;;18.80;8.10;;;;;;;3.73;77.75;99981.91;130456;1267;108764;-74
2022/01/29 13:04:12;;;;;;;20.10;8.50;;;;;;;3.71;77.98;99971.88;130639;1267;108832;-80
2022/01/29 13:07:20;;;;;;;20.60;9.20;;;;;;;3.71;77.92;99956.59;130652;1267;108791;-74
2022/01/29 13:10:31;;;;;;;26.10;12.50;;;;;;;3.76;77.89;99947.05;130460;1268;109041;-75
2022/01/29 13:13:36;;;;;;;21.00;10.30;;;;;;;3.81;78.01;99937.00;130455;1268;108968;-76
2022/01/29 13:16:42;;;;;;;22.60;10.50;;;;;;;3.80;77.91;99929.67;130652;1268;110000;-76
2022/01/29 13:19:50;;;;;;;23.80;10.50;;;;;;;3.71;77.75;99925.38;130511;1268;108669;-76
2022/01/29 13:22:56;;;;;;;19.50;9.60;;;;;;;3.60;77.95;99919.06;130443;1267;108768;-74
2022/01/29 13:26:13;;;;;;;24.70;10.70;;;;;;;3.47;78.01;99913.48;130396;1268;108971;-76
2022/01/29 13:29:32;;;;;;;25.90;10.80;;;;;;;3.40;78.14;99910.02;130271;1270;108685;-78
2022/01/29 13:32:39;;;;;;;18.10;9.10;;;;;;;3.41;78.18;99901.28;130309;1270;108443;-79
2022/01/29 13:35:48;;;;;;;19.80;9.60;;;;;;;3.46;78.28;99884.25;130613;1268;108867;-78
2022/01/29 13:39:07;;;;;;;18.90;10.10;;;;;;;3.45;78.27;99889.61;130629;1268;108776;-78
2022/01/29 13:42:17;;;;;;;19.50;10.20;;;;;;;3.43;78.30;99879.52;130756;1267;108636;-78
2022/01/29 13:45:23;;;;;;;20.10;10.60;;;;;;;3.44;78.42;99856.59;130561;1268;106992;-76
2022/01/29 13:48:41;;;;;;;22.20;11.00;;;;;;;3.38;78.34;99841.59;130503;1268;108905;-77
2022/01/29 13:51:47;;;;;;;21.70;10.70;;;;;;;3.27;78.44;99837.48;130505;1268;108721;-76
2022/01/29 13:54:52;;;;;;;22.10;11.70;;;;;;;3.25;78.58;99820.41;130370;1268;108950;-77
2022/01/29 13:58:03;;;;;;;22.00;11.40;;;;;;;3.23;78.49;99811.57;130350;1268;108775;-74
2022/01/29 14:01:09;;;;;;;23.30;13.60;;;;;;;3.23;78.65;99800.02;130318;1268;108156;-78
2022/01/29 14:04:29;;;;;;;29.70;17.30;;;;;;;3.22;78.67;99796.42;130353;1268;108956;-77
2022/01/29 14:07:40;;;;;;;27.40;16.20;;;;;;;3.15;78.60;99789.70;130310;1268;108823;-76
2022/01/29 14:10:55;;;;;;;23.40;13.00;;;;;;;3.08;78.68;99791.61;130325;1269;108740;-75
2022/01/29 14:14:00;;;;;;;34.60;19.10;;;;;;;3.03;78.68;99782.04;130381;1268;108730;-77